Aérodrome :
LOGIN :

S'inscrire | Disclaimer

   EN    FR    IT 

 










Légende :    VFR   VFR Marginal   IFR   IFR Intensif   IFR Très Intensif
Visi : 
Plafond : 
>= 8 km
>= 3000ft
5 à 8 km
1000 à 3000 ft
1500m à 5 km
500 à 1000 ft
800 à 1500m
200 à 500 ft
< 800m
< 200 ft
Symboles :   Orages  Brouillard  Fortes neiges  Fortes précipitations  Vent > 20 kt
SIGMETs :   Divers  Orages  Givrage  Turbulence  Onde Orograph.  Cendres Volcan.







- Altitude de l'aérodrome : 82 ft
- Code IATA : AAR


EKAH - Aarhus Tirstrup

DERNIER METAR :
  • 161750Z AUTO 23002KT 5000NDV OVC011/// 15/13 Q1018

METARs EXPIRÉS :
  • 161720Z AUTO 16001KT 5000NDV OVC011/// 14/13 Q1018
  • 161650Z AUTO 21002KT 4600NDV BR OVC012/// 14/13 Q1018
  • 161620Z AUTO 23002KT 4400NDV BR OVC012/// 14/13 Q1018
  • 161550Z AUTO 24004KT 210V270 4700NDV BR OVC012/// 15/13 Q1018
  • 161520Z AUTO 23001KT 5000NDV OVC013/// 15/13 Q1018

TAF AMD TAF EKAH
Valide du 16 à 18h jusqu'au 17 à 18h UTC


161801Z 1618/1718 19006KT 4000 BR SCT020
TEMPO 1618/1621 8000 NSW BKN010
BECMG 1621/1623 2000
TEMPO 1700/1705 1200 BCFG BKN002
TEMPO 1705/1708 4000
BECMG 1708/1710 9999 NSW
Pas de NOTAMs connus pour ce terrain.



MET'MAP, la Météo Aéronautique d'un coup d'oeil ! - Copyright ORBIFLY Décembre 2007 - Disclaimer

ORBIFLY MET'MAP TEAM :

Programmation & Développement : Alexandra Zaïnal
Conception & Développement : Baudouin d'Aumeries
Co-Programmation & Développement : Marc-Olivier Méhu
Soutien technique & logistique : Manuel Goepfert

Contact : metmap@orbifly.com




SOURCES & CREDITS :

   NOAA